Phoenix, Arizona
Traffic Map
Current Weather Conditions
Phoenix, Arizona
Broken Clouds
Broken Clouds
63°
Feels Like: 63°
Wind Chill: 63° Ceiling: 25000
Heat Index: 63° Visibility: 10mi
Dew Point: 35° Wind: 10mph
Humidity: 35% Direction: 310° (NW)
Pressure: 30.12in Gusts: 0mph
Raw Report DataKPHX 192351Z 31009KT 10SM FEW210 BKN250 BKN290 17/02 A3012 RMK AO2 SLP193 T01720017 10178 20133 56005
Traffic Incident Summary
Active as of:
Severity:
Category:
InformationThere was an issue retrieving the traffic information for this location. Please try a different location or try again shortly.
Advertisements
Track Severe Weather on mobile